NCAR-RAP Real-Time Weather Data

Output produced by METARs form (10 April 2020  06:51 UTC)
found at http://weather.rap.ucar.edu/surface/
 
KERI 100642Z AUTO 27017G28KT 10SM SCT024 BKN041 OVC050 03/M03 A2955 RMK AO2 PK WND 27032/0553 T00281028